Time;durP1;ratioP1;P1;durP2;ratioP2;P2;SDS_P1;SDS_P2;PMS_P1;PMS_P2;Temp;Humidity;BMP_temperature;BMP_pressure;BME280_temperature;BME280_humidity;BME280_pressure;Samples;Min_cycle;Max_cycle;Signal;HPM_P1;HPM_P2
2022/10/02 00:02:45;;;;;;;12.10;2.38;;;16.20;99.90;;;;;;5108108;27;20199;-65
2022/10/02 00:05:36;;;;;;;11.68;3.00;;;16.20;99.90;;;;;;5107211;27;20176;-65
2022/10/02 00:08:06;;;;;;;15.18;2.92;;;16.20;99.90;;;;;;5107064;27;20176;-66
2022/10/02 00:10:39;;;;;;;8.77;2.45;;;16.20;99.90;;;;;;5092109;28;20231;-66
2022/10/02 00:13:11;;;;;;;9.32;3.17;;;16.10;99.90;;;;;;5092324;28;20180;-65
2022/10/02 00:15:41;;;;;;;15.10;4.15;;;16.20;99.90;;;;;;5116289;27;20187;-65
2022/10/02 00:18:16;;;;;;;6.80;2.70;;;16.10;99.90;;;;;;5111607;27;20195;-65
2022/10/02 00:20:53;;;;;;;16.13;4.30;;;16.00;99.90;;;;;;5103918;28;20532;-65
2022/10/02 00:23:31;;;;;;;12.63;3.40;;;16.20;99.90;;;;;;5110701;27;20195;-65
2022/10/02 00:26:22;;;;;;;8.15;3.33;;;16.20;99.90;;;;;;5111310;27;20599;-65
2022/10/02 00:29:04;;;;;;;8.57;2.10;;;16.20;99.90;;;;;;5089173;28;20197;-65
2022/10/02 00:31:43;;;;;;;16.95;3.10;;;16.20;99.90;;;;;;5094581;28;20233;-65
2022/10/02 00:34:33;;;;;;;10.90;2.38;;;16.30;99.90;;;;;;5098806;28;20183;-65
2022/10/02 00:37:24;;;;;;;14.82;4.25;;;16.30;99.90;;;;;;5097324;28;20180;-65
2022/10/02 00:39:58;;;;;;;11.13;3.38;;;16.30;99.90;;;;;;5109766;27;20196;-65
2022/10/02 00:42:45;;;;;;;7.70;1.75;;;16.20;99.90;;;;;;5109105;27;20180;-65
2022/10/02 00:45:35;;;;;;;6.82;2.10;;;16.00;99.90;;;;;;5109024;28;20188;-65
2022/10/02 00:48:12;;;;;;;16.58;3.70;;;16.10;99.90;;;;;;5108834;27;20212;-66
2022/10/02 00:50:50;;;;;;;8.27;1.83;;;16.20;99.90;;;;;;5085531;28;20325;-65
2022/10/02 00:53:53;;;;;;;18.35;2.63;;;16.20;99.90;;;;;;5083306;28;20195;-65
2022/10/02 00:56:31;;;;;;;11.82;4.28;;;16.00;99.90;;;;;;5114451;27;20179;-65
2022/10/02 00:59:22;;;;;;;18.63;4.68;;;16.10;99.90;;;;;;5096172;28;20187;-65
2022/10/02 01:02:22;;;;;;;9.15;2.92;;;16.20;99.90;;;;;;5106936;28;20597;-66
2022/10/02 01:04:48;;;;;;;7.95;2.78;;;16.20;99.90;;;;;;5100964;27;20203;-65
2022/10/02 01:07:14;;;;;;;16.85;3.17;;;16.20;99.90;;;;;;5114878;28;20637;-65
2022/10/02 01:09:40;;;;;;;10.35;2.60;;;16.30;99.90;;;;;;5095521;28;20184;-66
2022/10/02 01:12:07;;;;;;;6.45;2.60;;;16.30;99.90;;;;;;5107336;27;20180;-66
2022/10/02 01:14:39;;;;;;;8.65;2.72;;;16.30;99.90;;;;;;5083642;28;20192;-66
2022/10/02 01:17:38;;;;;;;10.63;3.00;;;16.20;99.90;;;;;;5109606;27;20184;-65
2022/10/02 01:20:05;;;;;;;16.52;3.08;;;16.30;99.90;;;;;;5047255;28;20203;-65
2022/10/02 01:22:49;;;;;;;15.90;2.65;;;16.10;99.90;;;;;;5113970;28;20585;-65
2022/10/02 01:25:15;;;;;;;17.33;2.97;;;16.10;99.90;;;;;;5113760;28;20197;-65
2022/10/02 01:27:41;;;;;;;13.02;4.07;;;15.80;99.90;;;;;;5114443;27;20187;-66
2022/10/02 01:30:15;;;;;;;14.50;3.13;;;15.80;99.90;;;;;;5081480;28;20250;-66
2022/10/02 01:32:47;;;;;;;19.77;3.53;;;15.70;99.90;;;;;;5125519;27;20249;-66
2022/10/02 01:35:13;;;;;;;19.83;4.10;;;15.70;99.90;;;;;;5102380;28;20233;-65
2022/10/02 01:37:41;;;;;;;16.50;4.18;;;15.80;99.90;;;;;;5067523;28;20180;-66
2022/10/02 01:40:31;;;;;;;22.70;3.70;;;15.80;99.90;;;;;;5095677;27;20523;-65
2022/10/02 01:43:04;;;;;;;6.40;2.95;;;15.80;99.90;;;;;;5114401;27;20204;-65
2022/10/02 01:45:50;;;;;;;12.20;3.45;;;15.90;99.90;;;;;;5114050;27;20188;-65
2022/10/02 01:48:20;;;;;;;13.15;2.90;;;15.90;99.90;;;;;;5098142;27;20198;-65
2022/10/02 01:50:50;;;;;;;10.73;3.90;;;15.80;99.90;;;;;;5114260;27;20183;-65
2022/10/02 01:53:35;;;;;;;21.45;5.63;;;15.80;99.90;;;;;;5110639;27;20266;-65
2022/10/02 01:56:16;;;;;;;18.25;3.45;;;15.70;99.90;;;;;;5082101;28;20190;-65
2022/10/02 01:58:58;;;;;;;5.40;2.75;;;15.80;99.90;;;;;;5100348;27;20575;-65
2022/10/02 02:01:23;;;;;;;14.77;3.83;;;15.80;99.90;;;;;;5101547;28;20189;-65
2022/10/02 02:04:19;;;;;;;10.07;3.75;;;15.70;99.90;;;;;;5085346;28;20566;-65
2022/10/02 02:06:58;;;;;;;12.93;3.20;;;15.70;99.90;;;;;;5090599;28;20188;-65
2022/10/02 02:09:29;;;;;;;7.07;2.28;;;15.60;99.90;;;;;;5102765;28;20206;-65
2022/10/02 02:12:08;;;;;;;13.13;3.88;;;15.70;99.90;;;;;;5111291;28;20665;-65
2022/10/02 02:14:46;;;;;;;13.25;2.80;;;15.70;99.90;;;;;;5083103;28;20287;-65
2022/10/02 02:17:19;;;;;;;9.50;2.17;;;15.80;99.90;;;;;;5113669;27;20667;-65
2022/10/02 02:19:51;;;;;;;20.45;2.92;;;15.80;99.90;;;;;;5095460;28;20179;-66
2022/10/02 02:22:29;;;;;;;12.30;2.92;;;15.90;99.90;;;;;;5100795;28;20180;-65
2022/10/02 02:25:18;;;;;;;11.23;3.35;;;15.90;99.90;;;;;;5106500;28;20686;-65
2022/10/02 02:27:50;;;;;;;5.15;2.75;;;15.70;99.90;;;;;;5102634;28;20172;-65
2022/10/02 02:30:17;;;;;;;8.68;3.03;;;15.80;99.90;;;;;;5107401;28;20180;-66
2022/10/02 02:32:58;;;;;;;8.57;3.08;;;15.80;99.90;;;;;;5082440;28;20188;-65
2022/10/02 02:35:34;;;;;;;4.03;2.03;;;15.80;99.90;;;;;;5106646;28;20180;-66
2022/10/02 02:38:05;;;;;;;8.80;2.45;;;15.90;99.90;;;;;;5094639;28;20655;-65
2022/10/02 02:40:35;;;;;;;12.82;2.22;;;15.90;99.90;;;;;;5095554;28;20188;-66
2022/10/02 02:43:06;;;;;;;9.63;1.98;;;16.00;99.90;;;;;;5102022;28;20227;-66
2022/10/02 02:45:42;;;;;;;8.52;1.90;;;15.90;99.90;;;;;;5096409;28;20234;-65
2022/10/02 02:48:21;;;;;;;15.15;2.92;;;15.80;99.90;;;;;;5086073;28;20190;-66
2022/10/02 02:50:51;;;;;;;10.73;2.95;;;15.70;99.90;;;;;;5086433;28;20544;-65
2022/10/02 02:53:27;;;;;;;14.38;3.90;;;15.80;99.90;;;;;;5097466;28;20198;-65
2022/10/02 02:55:56;;;;;;;8.85;1.55;;;15.80;99.90;;;;;;5109802;27;20637;-66
2022/10/02 02:58:44;;;;;;;4.68;1.92;;;15.80;99.90;;;;;;5116556;27;20195;-65
2022/10/02 03:01:09;;;;;;;10.98;3.35;;;15.80;99.90;;;;;;5089617;28;20262;-65
2022/10/02 03:03:35;;;;;;;9.35;1.80;;;15.80;99.90;;;;;;5085088;28;20200;-65
2022/10/02 03:06:34;;;;;;;5.20;2.08;;;15.80;99.90;;;;;;5110340;27;20191;-65
2022/10/02 03:09:01;;;;;;;3.15;1.55;;;15.80;99.90;;;;;;5114149;27;20660;-65
2022/10/02 03:11:41;;;;;;;10.50;2.42;;;15.80;99.90;;;;;;5081840;28;20525;-65
2022/10/02 03:14:44;;;;;;;6.20;2.47;;;15.80;99.90;;;;;;5117382;27;20219;-65
2022/10/02 03:17:34;;;;;;;8.07;2.03;;;15.70;99.90;;;;;;5104132;27;20180;-66
2022/10/02 03:20:11;;;;;;;4.68;2.28;;;15.80;99.90;;;;;;5101826;27;20180;-65
2022/10/02 03:22:49;;;;;;;5.50;2.55;;;15.80;99.90;;;;;;5095729;28;20187;-65
2022/10/02 03:25:25;;;;;;;6.60;2.20;;;15.70;99.90;;;;;;5098594;28;20194;-65
2022/10/02 03:27:53;;;;;;;3.92;3.33;;;15.50;99.90;;;;;;5114718;27;20198;-66
2022/10/02 03:30:20;;;;;;;9.88;2.03;;;15.50;99.90;;;;;;5111404;27;20263;-66
2022/10/02 03:32:50;;;;;;;5.47;2.38;;;15.60;99.90;;;;;;5114278;27;20591;-65
2022/10/02 03:35:17;;;;;;;8.02;2.00;;;15.60;99.90;;;;;;5105237;28;20188;-65
2022/10/02 03:37:55;;;;;;;6.60;2.55;;;15.60;99.90;;;;;;5089756;28;20581;-65
2022/10/02 03:40:25;;;;;;;5.47;2.03;;;15.60;99.90;;;;;;5109935;28;20188;-66
2022/10/02 03:42:52;;;;;;;5.68;1.95;;;15.60;99.90;;;;;;5097375;28;20257;-65
2022/10/02 03:45:18;;;;;;;6.30;2.28;;;15.60;99.90;;;;;;5083434;28;20289;-66
2022/10/02 03:47:44;;;;;;;5.47;2.05;;;15.60;99.90;;;;;;5082450;28;20218;-65
2022/10/02 03:50:14;;;;;;;12.23;2.60;;;15.60;99.90;;;;;;5089974;28;20205;-65
2022/10/02 03:52:40;;;;;;;5.13;1.77;;;15.70;99.90;;;;;;5110823;27;20237;-66
2022/10/02 03:55:36;;;;;;;10.93;1.85;;;15.70;99.90;;;;;;5086374;28;20184;-66
2022/10/02 03:58:10;;;;;;;5.88;1.65;;;15.60;99.90;;;;;;5102369;27;20186;-65
2022/10/02 04:00:40;;;;;;;6.88;2.28;;;15.60;99.90;;;;;;5111925;28;20183;-65
2022/10/02 04:03:28;;;;;;;7.65;2.55;;;15.60;99.90;;;;;;5101709;28;20245;-65
2022/10/02 04:06:19;;;;;;;3.63;1.35;;;15.50;99.90;;;;;;5080487;28;20189;-65
2022/10/02 04:09:13;;;;;;;1.90;1.40;;;15.50;99.90;;;;;;5122571;27;20207;-69
2022/10/02 04:12:09;;;;;;;4.93;1.80;;;15.40;99.90;;;;;;5091508;27;20671;-65
2022/10/02 04:14:42;;;;;;;3.20;1.52;;;15.40;99.90;;;;;;5095285;28;20199;-66
2022/10/02 04:17:15;;;;;;;6.90;1.92;;;15.30;99.90;;;;;;5117481;27;20199;-65
2022/10/02 04:19:48;;;;;;;2.67;1.27;;;15.40;99.90;;;;;;5121732;27;20264;-66
2022/10/02 04:22:54;;;;;;;7.55;2.17;;;15.50;99.90;;;;;;5110835;27;20179;-65
2022/10/02 04:25:32;;;;;;;4.03;1.65;;;15.40;99.90;;;;;;5105450;27;20241;-65
2022/10/02 04:28:06;;;;;;;6.38;1.83;;;15.30;99.90;;;;;;5085533;28;20187;-66
2022/10/02 04:30:32;;;;;;;6.60;1.35;;;15.40;99.90;;;;;;5096880;27;20180;-66
2022/10/02 04:33:12;;;;;;;9.68;3.45;;;15.30;99.90;;;;;;5087441;28;20288;-65
2022/10/02 04:36:09;;;;;;;3.30;1.77;;;15.30;99.90;;;;;;5097403;28;20176;-65
2022/10/02 04:39:02;;;;;;;4.75;1.67;;;15.30;99.90;;;;;;5083581;28;20227;-65
2022/10/02 04:41:45;;;;;;;1.83;1.20;;;15.40;99.90;;;;;;5109435;27;20763;-65
2022/10/02 04:44:29;;;;;;;7.22;2.42;;;15.30;99.90;;;;;;5083258;28;20208;-65
2022/10/02 04:47:14;;;;;;;3.03;1.70;;;15.20;99.90;;;;;;5110091;27;20171;-66
2022/10/02 04:49:55;;;;;;;8.02;2.28;;;15.20;99.90;;;;;;5115137;28;20168;-65
2022/10/02 04:52:34;;;;;;;6.00;1.92;;;15.20;99.90;;;;;;5112744;27;20251;-66
2022/10/02 04:55:24;;;;;;;6.72;2.17;;;15.30;99.90;;;;;;5109998;28;20180;-66
2022/10/02 04:58:21;;;;;;;9.15;1.83;;;15.30;99.90;;;;;;5097815;27;20250;-65
2022/10/02 05:01:02;;;;;;;10.88;2.58;;;15.40;99.90;;;;;;5094588;27;20303;-66
2022/10/02 05:03:31;;;;;;;4.68;1.67;;;15.30;99.90;;;;;;5088868;28;20207;-66
2022/10/02 05:06:26;;;;;;;5.70;2.58;;;15.40;99.90;;;;;;5100412;28;20184;-65
2022/10/02 05:09:12;;;;;;;4.70;1.25;;;15.50;99.90;;;;;;5099568;28;20226;-65
2022/10/02 05:12:06;;;;;;;4.35;1.42;;;15.40;99.90;;;;;;5093681;28;20184;-65
2022/10/02 05:14:34;;;;;;;2.20;1.60;;;15.30;99.90;;;;;;5109611;28;20626;-66
2022/10/02 05:17:21;;;;;;;6.03;2.63;;;15.30;99.90;;;;;;5092418;28;20241;-65
2022/10/02 05:20:14;;;;;;;4.82;1.90;;;15.40;99.90;;;;;;5109980;28;20670;-66
2022/10/02 05:23:07;;;;;;;7.47;2.03;;;15.20;99.90;;;;;;5096443;27;20267;-66
2022/10/02 05:25:56;;;;;;;3.30;1.65;;;15.10;99.90;;;;;;5080832;28;20214;-66
2022/10/02 05:28:36;;;;;;;6.70;1.60;;;15.20;99.90;;;;;;5110139;27;20256;-65
2022/10/02 05:31:08;;;;;;;5.80;1.80;;;15.10;99.90;;;;;;5114670;27;20211;-65
2022/10/02 05:33:58;;;;;;;4.25;1.50;;;15.10;99.90;;;;;;5094921;28;20176;-66
2022/10/02 05:36:48;;;;;;;5.80;2.00;;;15.20;99.90;;;;;;5103386;28;20242;-65
2022/10/02 05:39:19;;;;;;;6.65;1.40;;;15.20;99.90;;;;;;5111774;27;20179;-65
2022/10/02 05:42:04;;;;;;;8.57;1.83;;;15.20;99.90;;;;;;5104750;27;20187;-65
2022/10/02 05:44:50;;;;;;;3.92;1.63;;;15.30;99.90;;;;;;5084969;28;20208;-65
2022/10/02 05:47:29;;;;;;;5.07;1.73;;;15.20;99.90;;;;;;5098739;27;20176;-65
2022/10/02 05:50:01;;;;;;;5.63;1.75;;;15.30;99.90;;;;;;5105681;28;20171;-65
2022/10/02 05:52:52;;;;;;;4.93;1.35;;;15.30;99.90;;;;;;5106035;28;20653;-65
2022/10/02 05:55:27;;;;;;;9.38;2.13;;;15.20;99.90;;;;;;5097136;28;20226;-65
2022/10/02 05:58:04;;;;;;;5.00;1.58;;;15.20;99.90;;;;;;5109131;27;20180;-65
2022/10/02 06:00:36;;;;;;;5.32;1.70;;;15.30;99.90;;;;;;5104393;28;20179;-65
2022/10/02 06:03:10;;;;;;;6.10;2.08;;;15.20;99.90;;;;;;5110107;27;20204;-65
2022/10/02 06:05:47;;;;;;;2.05;1.30;;;15.30;99.90;;;;;;5081058;28;20187;-65
2022/10/02 06:08:17;;;;;;;7.80;1.70;;;15.20;99.90;;;;;;5098232;28;20206;-65
2022/10/02 06:10:50;;;;;;;2.15;1.25;;;15.20;99.90;;;;;;5109811;27;20241;-66
2022/10/02 06:13:22;;;;;;;3.28;1.60;;;15.20;99.90;;;;;;5105874;27;20707;-65
2022/10/02 06:15:54;;;;;;;2.78;1.27;;;15.10;99.90;;;;;;5104156;28;20172;-66
2022/10/02 06:18:27;;;;;;;5.70;1.85;;;15.10;99.90;;;;;;5110836;27;20536;-65
2022/10/02 06:21:08;;;;;;;3.63;2.30;;;15.00;99.90;;;;;;5106760;28;20176;-65
2022/10/02 06:23:42;;;;;;;6.63;2.22;;;15.20;99.90;;;;;;5098752;28;20229;-65
2022/10/02 06:26:13;;;;;;;7.50;1.95;;;15.10;99.90;;;;;;5085611;27;20182;-65
2022/10/02 06:28:46;;;;;;;7.55;2.42;;;15.10;99.90;;;;;;5100402;27;20173;-64
2022/10/02 06:31:30;;;;;;;9.98;2.03;;;15.10;99.90;;;;;;5075364;28;20531;-64
2022/10/02 06:33:56;;;;;;;7.28;2.30;;;15.20;99.90;;;;;;5093597;28;20182;-63
2022/10/02 06:36:28;;;;;;;7.82;2.22;;;15.30;99.90;;;;;;5093973;28;20703;-63
2022/10/02 06:39:18;;;;;;;7.25;1.80;;;15.40;99.90;;;;;;5074380;28;20181;-65
2022/10/02 06:41:56;;;;;;;7.75;2.20;;;15.50;99.90;;;;;;5099006;28;20177;-64
2022/10/02 06:44:58;;;;;;;6.55;2.42;;;15.50;99.90;;;;;;5084284;28;20204;-63
2022/10/02 06:47:43;;;;;;;8.43;1.42;;;15.30;99.90;;;;;;5104853;28;20171;-65
2022/10/02 06:50:15;;;;;;;8.98;3.20;;;15.40;99.90;;;;;;5109311;28;20205;-64
2022/10/02 06:53:05;;;;;;;6.13;1.92;;;15.40;99.90;;;;;;5102875;28;20177;-64
2022/10/02 06:55:35;;;;;;;6.55;1.98;;;15.30;99.90;;;;;;5098582;28;20180;-64
2022/10/02 06:58:22;;;;;;;4.03;1.70;;;15.30;99.90;;;;;;5098311;28;20275;-64
2022/10/02 07:01:34;;;;;;;6.97;1.77;;;15.30;99.90;;;;;;5101920;28;20657;-64
2022/10/02 07:04:28;;;;;;;2.20;1.38;;;15.40;99.90;;;;;;5079769;28;20652;-63
2022/10/02 07:07:09;;;;;;;3.42;1.00;;;15.40;99.90;;;;;;5099359;28;20526;-64
2022/10/02 07:09:59;;;;;;;5.10;1.85;;;15.60;99.90;;;;;;4743394;28;10000451;-64
2022/10/02 07:12:48;;;;;;;4.28;2.33;;;15.50;99.90;;;;;;5098311;28;20211;-64
2022/10/02 07:15:19;;;;;;;3.85;1.45;;;15.60;99.90;;;;;;5081052;28;20196;-64
2022/10/02 07:17:51;;;;;;;4.32;2.28;;;15.50;99.90;;;;;;5103386;28;20184;-65
2022/10/02 07:20:44;;;;;;;11.05;3.13;;;15.50;99.90;;;;;;5078336;28;20185;-64
2022/10/02 07:23:15;;;;;;;5.40;2.17;;;15.60;99.90;;;;;;5097328;28;20660;-64
2022/10/02 07:26:06;;;;;;;5.13;2.55;;;15.70;99.90;;;;;;5067789;28;20187;-65
2022/10/02 07:28:38;;;;;;;7.65;2.45;;;15.80;99.90;;;;;;5076341;28;20630;-65
2022/10/02 07:31:41;;;;;;;10.50;2.30;;;15.80;99.90;;;;;;5094767;28;20267;-65
2022/10/02 07:34:44;;;;;;;4.68;1.70;;;15.60;99.90;;;;;;5071294;28;20192;-65
2022/10/02 07:37:41;;;;;;;2.20;1.77;;;15.60;99.90;;;;;;5094413;28;20176;-65
2022/10/02 07:40:34;;;;;;;4.18;2.05;;;15.70;99.90;;;;;;5095967;28;20212;-65
2022/10/02 07:43:08;;;;;;;4.75;1.67;;;15.70;99.90;;;;;;5099107;27;20247;-64
2022/10/02 07:45:40;;;;;;;2.28;1.70;;;15.80;99.90;;;;;;5103225;28;20190;-64
2022/10/02 07:48:19;;;;;;;7.18;2.10;;;15.90;99.90;;;;;;5105243;27;20180;-65
2022/10/02 07:54:30;;;;;;;2.38;1.80;;;16.00;99.90;;;;;;5095274;28;20221;-65
2022/10/02 07:57:01;;;;;;;5.60;2.30;;;16.00;99.90;;;;;;5106791;27;20180;-65
2022/10/02 07:59:30;;;;;;;6.70;1.88;;;16.10;99.90;;;;;;5106420;27;20211;-65
2022/10/02 08:01:57;;;;;;;10.20;2.55;;;16.20;99.90;;;;;;5088050;28;20180;-64
2022/10/02 08:04:29;;;;;;;4.28;1.65;;;16.30;99.90;;;;;;5081937;28;20609;-64
2022/10/02 08:07:01;;;;;;;4.03;1.50;;;16.30;99.90;;;;;;5108977;27;20184;-64
2022/10/02 08:09:30;;;;;;;3.10;1.30;;;16.40;99.90;;;;;;5101205;27;20245;-64
2022/10/02 08:12:02;;;;;;;3.03;1.52;;;16.50;99.90;;;;;;5112851;27;20195;-64
2022/10/02 08:14:39;;;;;;;2.78;2.53;;;16.60;99.90;;;;;;5084074;27;20224;-64
2022/10/02 08:17:42;;;;;;;1.67;1.58;;;16.60;99.90;;;;;;5106264;28;20591;-64
2022/10/02 08:20:30;;;;;;;6.50;2.20;;;16.80;99.90;;;;;;5103088;28;20172;-65
2022/10/02 08:23:23;;;;;;;3.67;1.85;;;16.60;99.90;;;;;;5100222;27;20628;-66
2022/10/02 08:25:51;;;;;;;4.18;2.58;;;16.70;99.90;;;;;;5103146;27;20177;-65
2022/10/02 08:28:26;;;;;;;4.82;2.70;;;16.60;99.90;;;;;;5104980;28;20620;-65
2022/10/02 08:30:53;;;;;;;1.85;1.55;;;16.50;99.90;;;;;;5105478;27;20180;-65
2022/10/02 08:33:21;;;;;;;6.32;2.13;;;16.30;99.90;;;;;;5081396;28;20191;-65
2022/10/02 08:36:07;;;;;;;5.03;1.77;;;16.50;99.90;;;;;;5097081;27;20187;-66
2022/10/02 08:39:07;;;;;;;3.83;1.40;;;16.60;99.90;;;;;;5079565;28;20180;-66
2022/10/02 08:41:36;;;;;;;2.72;1.40;;;16.70;99.90;;;;;;5105653;27;20191;-66
2022/10/02 08:44:33;;;;;;;2.10;1.30;;;16.70;99.90;;;;;;5109597;28;20230;-66
2022/10/02 08:47:20;;;;;;;2.75;1.33;;;16.80;99.90;;;;;;5097045;27;20190;-67
2022/10/02 08:49:51;;;;;;;2.22;0.85;;;16.70;99.90;;;;;;5093947;28;20208;-66
2022/10/02 08:52:55;;;;;;;1.35;1.10;;;16.70;99.90;;;;;;5086301;28;20541;-66
2022/10/02 08:56:02;;;;;;;4.97;3.50;;;16.70;99.90;;;;;;5105061;27;20167;-66
2022/10/02 08:58:58;;;;;;;2.10;1.10;;;16.60;99.90;;;;;;5095927;28;20241;-67
2022/10/02 09:01:53;;;;;;;3.08;1.70;;;16.70;99.90;;;;;;5108233;28;20628;-66
2022/10/02 09:04:59;;;;;;;2.42;0.98;;;16.90;99.90;;;;;;5096520;28;20204;-66
2022/10/02 09:07:44;;;;;;;2.85;1.15;;;17.10;99.90;;;;;;5079004;28;20192;-66
2022/10/02 09:10:48;;;;;;;1.90;1.42;;;17.40;99.90;;;;;;5106626;28;20196;-66
2022/10/02 09:13:25;;;;;;;5.25;1.75;;;17.30;99.90;;;;;;5031036;28;20228;-66
2022/10/02 09:16:06;;;;;;;3.78;1.05;;;17.30;99.90;;;;;;5083974;28;20263;-66
2022/10/02 09:18:57;;;;;;;2.08;1.33;;;17.10;99.90;;;;;;5102000;28;20188;-66
2022/10/02 09:22:05;;;;;;;8.05;1.92;;;16.80;99.90;;;;;;5098071;28;20259;-66
2022/10/02 09:24:30;;;;;;;3.33;1.13;;;16.90;99.90;;;;;;5101029;27;20215;-66
2022/10/02 09:27:01;;;;;;;1.38;1.25;;;17.00;99.90;;;;;;5106225;27;20182;-66
2022/10/02 09:29:59;;;;;;;2.35;1.38;;;17.00;99.90;;;;;;5106935;27;20561;-66
2022/10/02 09:32:51;;;;;;;2.63;2.20;;;17.10;99.90;;;;;;5057308;28;20228;-66
2022/10/02 09:35:39;;;;;;;1.63;1.48;;;17.10;99.90;;;;;;5070460;28;20199;-66
2022/10/02 09:38:28;;;;;;;1.85;1.55;;;17.10;99.90;;;;;;5076086;28;20181;-66
2022/10/02 09:41:14;;;;;;;1.95;1.15;;;17.10;99.90;;;;;;5075452;28;20669;-66
2022/10/02 09:44:02;;;;;;;2.88;1.63;;;17.20;99.90;;;;;;5077908;28;20204;-66
2022/10/02 09:46:54;;;;;;;3.05;1.38;;;17.30;99.90;;;;;;5087584;28;20211;-66
2022/10/02 09:49:41;;;;;;;2.58;1.90;;;17.60;99.90;;;;;;5053657;27;20534;-66
2022/10/02 09:52:27;;;;;;;2.47;1.85;;;17.50;99.90;;;;;;5100393;27;20172;-67
2022/10/02 09:55:08;;;;;;;1.77;1.23;;;17.60;99.90;;;;;;5107980;28;20183;-66
2022/10/02 09:58:10;;;;;;;2.25;1.63;;;17.60;99.90;;;;;;5093861;28;20544;-66
2022/10/02 10:00:38;;;;;;;2.15;1.25;;;17.60;99.90;;;;;;5087063;28;20214;-66
2022/10/02 10:03:19;;;;;;;6.05;1.42;;;17.70;99.90;;;;;;5106969;27;20249;-66
2022/10/02 10:06:05;;;;;;;4.05;1.83;;;17.60;99.90;;;;;;5100406;27;20182;-66
2022/10/02 10:08:49;;;;;;;3.30;1.92;;;17.60;99.90;;;;;;5090228;28;20171;-66
2022/10/02 10:11:46;;;;;;;2.15;1.98;;;17.50;99.90;;;;;;5105457;28;20706;-66
2022/10/02 10:14:43;;;;;;;3.20;2.03;;;17.50;99.90;;;;;;5107303;27;20180;-66
2022/10/02 10:17:30;;;;;;;2.38;1.85;;;17.30;99.90;;;;;;5094212;28;20279;-66
2022/10/02 10:20:06;;;;;;;2.20;1.50;;;17.30;99.90;;;;;;5105815;27;20188;-66
2022/10/02 10:22:57;;;;;;;4.47;1.90;;;17.30;99.90;;;;;;5113720;28;20180;-66
2022/10/02 10:25:49;;;;;;;1.25;1.25;;;17.30;99.90;;;;;;5111721;28;20190;-66
2022/10/02 10:28:52;;;;;;;1.65;1.55;;;17.30;99.90;;;;;;5090963;28;20546;-66
2022/10/02 10:31:42;;;;;;;2.35;1.67;;;17.50;99.90;;;;;;5086582;28;20192;-66
2022/10/02 10:34:31;;;;;;;3.28;1.92;;;17.60;99.90;;;;;;5104587;28;20223;-66
2022/10/02 10:40:12;;;;;;;2.70;1.27;;;17.50;99.90;;;;;;5105888;28;20191;-66
2022/10/02 10:43:14;;;;;;;1.38;1.27;;;17.70;99.90;;;;;;5100750;28;20176;-67
2022/10/02 10:45:49;;;;;;;5.32;1.65;;;18.00;99.90;;;;;;5093798;28;20187;-66
2022/10/02 10:48:33;;;;;;;3.60;2.00;;;18.00;99.90;;;;;;5105001;28;20233;-67
2022/10/02 10:51:01;;;;;;;1.35;1.30;;;18.10;99.90;;;;;;5093757;28;20191;-67
2022/10/02 10:53:56;;;;;;;1.88;1.70;;;18.20;99.90;;;;;;5098673;28;20259;-67
2022/10/02 10:56:35;;;;;;;4.35;1.58;;;18.20;99.90;;;;;;5094948;28;20536;-66
2022/10/02 10:59:05;;;;;;;2.08;1.60;;;18.20;99.90;;;;;;5104912;28;20629;-66
2022/10/02 11:01:42;;;;;;;4.10;1.50;;;18.30;99.90;;;;;;5103513;28;20172;-66
2022/10/02 11:04:42;;;;;;;1.83;1.42;;;18.40;99.90;;;;;;5092702;28;20290;-66
2022/10/02 11:07:12;;;;;;;1.40;1.23;;;18.50;99.90;;;;;;5085333;28;20184;-66
2022/10/02 11:10:06;;;;;;;3.58;1.42;;;18.50;99.90;;;;;;5111415;28;20187;-64
2022/10/02 11:13:00;;;;;;;4.72;2.15;;;18.50;99.90;;;;;;5086921;28;20184;-66
2022/10/02 11:15:58;;;;;;;7.25;1.30;;;18.60;99.90;;;;;;5094135;28;20176;-67
2022/10/02 11:18:33;;;;;;;1.40;1.25;;;18.60;99.90;;;;;;5114656;27;20247;-64
2022/10/02 11:21:05;;;;;;;1.30;1.05;;;18.60;99.90;;;;;;5102227;28;20176;-64
2022/10/02 11:23:55;;;;;;;1.15;1.00;;;18.60;99.90;;;;;;5110834;27;20225;-64
2022/10/02 11:26:45;;;;;;;1.50;1.40;;;18.50;99.90;;;;;;5104183;27;20251;-64
2022/10/02 11:29:35;;;;;;;1.30;1.25;;;18.40;99.90;;;;;;5102435;27;20176;-64
2022/10/02 11:32:15;;;;;;;3.30;1.98;;;18.40;99.90;;;;;;5100868;27;20173;-64
2022/10/02 11:34:50;;;;;;;3.38;2.08;;;18.50;99.90;;;;;;5105783;27;20589;-65
2022/10/02 11:37:44;;;;;;;2.83;1.13;;;18.60;99.90;;;;;;5098203;28;20266;-65
2022/10/02 11:40:49;;;;;;;9.23;2.10;;;18.60;99.90;;;;;;5098244;28;20179;-65
2022/10/02 11:43:37;;;;;;;2.95;1.65;;;18.80;99.90;;;;;;5092209;28;20215;-65
2022/10/02 11:46:24;;;;;;;2.58;1.75;;;18.90;99.90;;;;;;5113152;27;20176;-65
2022/10/02 11:49:06;;;;;;;1.50;1.40;;;18.80;99.90;;;;;;5084247;27;20180;-65
2022/10/02 11:52:23;;;;;;;2.03;1.65;;;18.90;99.90;;;;;;5108633;27;20190;-65
2022/10/02 11:55:05;;;;;;;3.85;1.50;;;18.90;99.90;;;;;;4996901;28;20675;-65
2022/10/02 11:57:46;;;;;;;4.35;1.65;;;19.00;99.90;;;;;;5013011;28;20545;-65
2022/10/02 12:00:40;;;;;;;3.90;1.60;;;19.10;99.90;;;;;;5062571;28;20233;-65
2022/10/02 12:03:21;;;;;;;4.03;1.88;;;19.00;99.90;;;;;;5084955;27;20180;-65
2022/10/02 12:06:02;;;;;;;3.28;1.33;;;19.10;99.90;;;;;;5090119;27;20187;-65
2022/10/02 12:08:55;;;;;;;2.72;1.88;;;19.10;99.90;;;;;;5097797;27;20222;-65
2022/10/02 12:11:43;;;;;;;1.90;1.80;;;18.90;99.90;;;;;;5081299;28;20199;-65
2022/10/02 12:14:23;;;;;;;5.53;2.00;;;18.90;99.90;;;;;;5099425;28;20188;-64
2022/10/02 12:16:55;;;;;;;3.45;2.17;;;18.90;99.90;;;;;;5113412;27;20266;-65
2022/10/02 12:19:34;;;;;;;8.50;3.03;;;18.80;99.90;;;;;;5095601;28;20262;-65
2022/10/02 12:28:22;;;;;;;3.05;2.67;;;18.60;99.90;;;;;;5097968;28;20199;-65
2022/10/02 12:31:21;;;;;;;5.45;3.03;;;18.50;99.90;;;;;;5092138;28;20180;-65
2022/10/02 12:34:25;;;;;;;3.88;2.55;;;18.50;99.90;;;;;;5098982;28;20180;-65
2022/10/02 12:37:42;;;;;;;6.15;2.33;;;18.60;99.90;;;;;;5091157;28;20189;-65
2022/10/02 12:40:20;;;;;;;7.22;3.72;;;18.70;99.90;;;;;;5067124;27;20287;-65
2022/10/02 12:43:06;;;;;;;2.25;2.00;;;18.70;99.90;;;;;;5110635;27;20184;-65
2022/10/02 12:45:50;;;;;;;3.47;3.17;;;18.60;99.90;;;;;;5117885;27;20188;-65
2022/10/02 12:48:30;;;;;;;7.13;3.17;;;18.70;99.90;;;;;;5105912;28;20510;-65
2022/10/02 12:51:17;;;;;;;3.67;3.13;;;18.70;99.90;;;;;;5085293;28;20175;-65
2022/10/02 12:54:06;;;;;;;5.78;3.35;;;18.80;99.90;;;;;;5104593;27;20183;-65
2022/10/02 12:57:09;;;;;;;4.15;2.88;;;19.00;99.90;;;;;;5086138;28;20202;-65
2022/10/02 12:59:41;;;;;;;5.72;3.13;;;18.90;99.90;;;;;;5112259;27;20371;-65
2022/10/02 13:02:30;;;;;;;2.85;2.65;;;19.00;99.90;;;;;;5114001;27;20184;-65
2022/10/02 13:05:21;;;;;;;3.42;2.85;;;19.30;99.90;;;;;;5105572;27;20285;-65
2022/10/02 13:08:21;;;;;;;6.72;3.60;;;19.30;99.90;;;;;;5090520;28;20641;-65
2022/10/02 13:11:19;;;;;;;5.32;3.50;;;19.40;99.90;;;;;;5113724;27;20587;-65
2022/10/02 13:14:07;;;;;;;3.00;2.80;;;19.30;99.90;;;;;;5095054;27;20185;-65
2022/10/02 13:16:45;;;;;;;7.32;4.40;;;19.30;99.90;;;;;;5106378;27;20179;-65
2022/10/02 13:19:23;;;;;;;3.80;3.08;;;19.20;99.90;;;;;;5110733;27;20184;-65
2022/10/02 13:22:10;;;;;;;6.47;4.13;;;19.40;99.90;;;;;;5091293;28;20191;-65
2022/10/02 13:25:21;;;;;;;8.52;4.82;;;19.30;99.90;;;;;;5100332;27;20204;-65
2022/10/02 13:28:12;;;;;;;6.30;3.50;;;19.30;99.90;;;;;;5064797;28;20195;-65
2022/10/02 13:31:02;;;;;;;6.25;3.60;;;19.40;99.90;;;;;;5107486;27;20305;-65
2022/10/02 13:33:59;;;;;;;5.93;4.25;;;19.40;99.90;;;;;;5077903;28;20292;-66
2022/10/02 13:36:36;;;;;;;8.82;3.88;;;19.40;99.90;;;;;;5075769;28;20535;-66
2022/10/02 13:39:17;;;;;;;5.93;4.28;;;19.50;99.90;;;;;;5099927;27;20188;-66
2022/10/02 13:41:52;;;;;;;6.10;4.13;;;19.50;99.90;;;;;;5104735;27;20571;-66
2022/10/02 13:44:45;;;;;;;7.38;5.25;;;19.70;99.90;;;;;;5093277;28;20202;-66
2022/10/02 13:47:34;;;;;;;9.48;5.88;;;19.70;99.90;;;;;;5088478;28;20182;-66
2022/10/02 13:50:02;;;;;;;7.88;5.35;;;19.60;99.90;;;;;;5079139;28;20180;-66
2022/10/02 13:52:56;;;;;;;5.95;4.20;;;19.60;99.90;;;;;;5085304;28;20184;-66
2022/10/02 13:55:32;;;;;;;9.00;4.18;;;19.50;99.90;;;;;;5112420;28;20187;-66
2022/10/02 13:58:23;;;;;;;4.60;4.18;;;19.60;99.90;;;;;;5104748;28;20176;-66
2022/10/02 14:01:22;;;;;;;7.65;4.90;;;19.60;99.90;;;;;;5120309;27;20190;-66
2022/10/02 14:04:06;;;;;;;7.63;4.55;;;19.40;99.90;;;;;;5081724;28;20300;-71
2022/10/02 14:06:46;;;;;;;8.50;4.28;;;19.30;99.90;;;;;;5082725;28;20535;-64
2022/10/02 14:09:20;;;;;;;7.05;4.53;;;19.20;99.90;;;;;;5106528;28;20176;-66
2022/10/02 14:11:49;;;;;;;6.15;5.05;;;19.20;99.90;;;;;;5110486;28;20664;-66
2022/10/02 14:14:41;;;;;;;10.45;4.63;;;19.10;99.90;;;;;;5103639;27;20246;-66
2022/10/02 14:17:42;;;;;;;12.68;5.97;;;19.10;99.90;;;;;;5100175;27;20690;-67